sensor_id;sensor_type;location;lat;lon;timestamp;P1;durP1;ratioP1;P2;durP2;ratioP2
72273;SDS011;60208;48.692;8.948;2022-08-07T00:01:11;3.05;;;0.90;;
72273;SDS011;60208;48.692;8.948;2022-08-07T00:03:37;2.33;;;1.00;;
72273;SDS011;60208;48.692;8.948;2022-08-07T00:06:03;1.58;;;0.93;;
72273;SDS011;60208;48.692;8.948;2022-08-07T00:08:28;2.33;;;1.25;;
72273;SDS011;60208;48.692;8.948;2022-08-07T00:10:54;2.58;;;0.80;;
72273;SDS011;60208;48.692;8.948;2022-08-07T00:13:20;2.38;;;1.27;;
72273;SDS011;60208;48.692;8.948;2022-08-07T00:15:46;2.05;;;1.05;;
72273;SDS011;60208;48.692;8.948;2022-08-07T00:18:22;1.90;;;0.95;;
72273;SDS011;60208;48.692;8.948;2022-08-07T00:20:49;3.55;;;1.38;;
72273;SDS011;60208;48.692;8.948;2022-08-07T00:23:15;1.73;;;1.00;;
72273;SDS011;60208;48.692;8.948;2022-08-07T00:25:41;1.45;;;0.90;;
72273;SDS011;60208;48.692;8.948;2022-08-07T00:28:06;5.10;;;1.00;;
72273;SDS011;60208;48.692;8.948;2022-08-07T00:30:32;1.20;;;1.08;;
72273;SDS011;60208;48.692;8.948;2022-08-07T00:32:58;1.98;;;1.20;;
72273;SDS011;60208;48.692;8.948;2022-08-07T00:35:25;1.92;;;1.08;;
72273;SDS011;60208;48.692;8.948;2022-08-07T00:37:50;4.78;;;1.20;;
72273;SDS011;60208;48.692;8.948;2022-08-07T00:40:16;2.25;;;1.10;;
72273;SDS011;60208;48.692;8.948;2022-08-07T00:42:42;2.45;;;0.93;;
72273;SDS011;60208;48.692;8.948;2022-08-07T00:45:07;2.50;;;1.17;;
72273;SDS011;60208;48.692;8.948;2022-08-07T00:47:34;1.25;;;1.00;;
72273;SDS011;60208;48.692;8.948;2022-08-07T00:50:00;2.03;;;1.10;;
72273;SDS011;60208;48.692;8.948;2022-08-07T00:52:25;1.08;;;1.02;;
72273;SDS011;60208;48.692;8.948;2022-08-07T00:54:51;0.95;;;0.70;;
72273;SDS011;60208;48.692;8.948;2022-08-07T00:57:17;1.38;;;1.05;;
72273;SDS011;60208;48.692;8.948;2022-08-07T00:59:42;3.95;;;1.40;;
72273;SDS011;60208;48.692;8.948;2022-08-07T01:02:08;2.78;;;1.20;;
72273;SDS011;60208;48.692;8.948;2022-08-07T01:04:35;1.83;;;1.13;;
72273;SDS011;60208;48.692;8.948;2022-08-07T01:07:01;1.17;;;0.93;;
72273;SDS011;60208;48.692;8.948;2022-08-07T01:09:26;2.50;;;0.90;;
72273;SDS011;60208;48.692;8.948;2022-08-07T01:11:52;2.25;;;1.20;;
72273;SDS011;60208;48.692;8.948;2022-08-07T01:14:19;1.85;;;0.95;;
72273;SDS011;60208;48.692;8.948;2022-08-07T01:16:45;3.42;;;0.93;;
72273;SDS011;60208;48.692;8.948;2022-08-07T01:19:11;2.25;;;0.82;;
72273;SDS011;60208;48.692;8.948;2022-08-07T01:21:36;0.95;;;0.80;;
72273;SDS011;60208;48.692;8.948;2022-08-07T01:24:02;2.17;;;0.98;;
72273;SDS011;60208;48.692;8.948;2022-08-07T01:26:28;3.05;;;0.93;;
72273;SDS011;60208;48.692;8.948;2022-08-07T01:28:53;2.67;;;1.00;;
72273;SDS011;60208;48.692;8.948;2022-08-07T01:31:20;2.95;;;1.10;;
72273;SDS011;60208;48.692;8.948;2022-08-07T01:33:52;1.50;;;0.97;;
72273;SDS011;60208;48.692;8.948;2022-08-07T01:36:17;1.45;;;0.80;;
72273;SDS011;60208;48.692;8.948;2022-08-07T01:38:42;0.95;;;0.85;;
72273;SDS011;60208;48.692;8.948;2022-08-07T01:41:08;1.38;;;1.08;;
72273;SDS011;60208;48.692;8.948;2022-08-07T01:43:35;2.65;;;1.70;;
72273;SDS011;60208;48.692;8.948;2022-08-07T01:46:01;1.30;;;0.95;;
72273;SDS011;60208;48.692;8.948;2022-08-07T01:48:27;2.75;;;0.90;;
72273;SDS011;60208;48.692;8.948;2022-08-07T01:50:55;2.90;;;1.20;;
72273;SDS011;60208;48.692;8.948;2022-08-07T01:53:22;2.92;;;1.02;;
72273;SDS011;60208;48.692;8.948;2022-08-07T01:55:52;1.75;;;0.80;;
72273;SDS011;60208;48.692;8.948;2022-08-07T01:58:21;1.88;;;1.00;;
72273;SDS011;60208;48.692;8.948;2022-08-07T02:00:49;1.85;;;1.10;;
72273;SDS011;60208;48.692;8.948;2022-08-07T02:03:17;1.27;;;0.80;;
72273;SDS011;60208;48.692;8.948;2022-08-07T02:05:46;1.30;;;0.98;;
72273;SDS011;60208;48.692;8.948;2022-08-07T02:08:17;4.47;;;0.90;;
72273;SDS011;60208;48.692;8.948;2022-08-07T02:10:43;3.60;;;1.10;;
72273;SDS011;60208;48.692;8.948;2022-08-07T02:13:09;1.08;;;0.80;;
72273;SDS011;60208;48.692;8.948;2022-08-07T02:15:36;1.52;;;0.93;;
72273;SDS011;60208;48.692;8.948;2022-08-07T02:18:03;2.17;;;0.80;;
72273;SDS011;60208;48.692;8.948;2022-08-07T02:20:30;2.35;;;1.00;;
72273;SDS011;60208;48.692;8.948;2022-08-07T02:22:57;1.65;;;0.93;;
72273;SDS011;60208;48.692;8.948;2022-08-07T02:25:25;1.90;;;1.10;;
72273;SDS011;60208;48.692;8.948;2022-08-07T02:27:52;1.63;;;0.90;;
72273;SDS011;60208;48.692;8.948;2022-08-07T02:30:18;1.45;;;0.90;;
72273;SDS011;60208;48.692;8.948;2022-08-07T02:32:43;1.27;;;0.90;;
72273;SDS011;60208;48.692;8.948;2022-08-07T02:35:09;2.03;;;1.05;;
72273;SDS011;60208;48.692;8.948;2022-08-07T02:37:37;1.92;;;1.00;;
72273;SDS011;60208;48.692;8.948;2022-08-07T02:40:04;1.00;;;0.90;;
72273;SDS011;60208;48.692;8.948;2022-08-07T02:42:31;1.23;;;0.88;;
72273;SDS011;60208;48.692;8.948;2022-08-07T02:44:57;1.92;;;1.40;;
72273;SDS011;60208;48.692;8.948;2022-08-07T02:47:24;4.18;;;2.78;;
72273;SDS011;60208;48.692;8.948;2022-08-07T02:49:50;1.92;;;1.00;;
72273;SDS011;60208;48.692;8.948;2022-08-07T02:52:17;1.20;;;0.88;;
72273;SDS011;60208;48.692;8.948;2022-08-07T02:54:45;3.92;;;0.90;;
72273;SDS011;60208;48.692;8.948;2022-08-07T02:57:12;1.00;;;0.90;;
72273;SDS011;60208;48.692;8.948;2022-08-07T02:59:39;1.38;;;1.00;;
72273;SDS011;60208;48.692;8.948;2022-08-07T03:02:09;1.52;;;0.95;;
72273;SDS011;60208;48.692;8.948;2022-08-07T03:04:35;1.83;;;1.05;;
72273;SDS011;60208;48.692;8.948;2022-08-07T03:07:01;1.45;;;0.95;;
72273;SDS011;60208;48.692;8.948;2022-08-07T03:09:26;1.65;;;0.90;;
72273;SDS011;60208;48.692;8.948;2022-08-07T03:11:52;1.38;;;1.00;;
72273;SDS011;60208;48.692;8.948;2022-08-07T03:14:18;1.58;;;0.90;;
72273;SDS011;60208;48.692;8.948;2022-08-07T03:16:44;1.95;;;1.10;;
72273;SDS011;60208;48.692;8.948;2022-08-07T03:19:09;2.55;;;1.10;;
72273;SDS011;60208;48.692;8.948;2022-08-07T03:21:35;1.67;;;1.00;;
72273;SDS011;60208;48.692;8.948;2022-08-07T03:24:01;1.73;;;1.00;;
72273;SDS011;60208;48.692;8.948;2022-08-07T03:26:27;1.98;;;0.93;;
72273;SDS011;60208;48.692;8.948;2022-08-07T03:28:55;1.73;;;1.27;;
72273;SDS011;60208;48.692;8.948;2022-08-07T03:31:22;1.50;;;1.13;;
72273;SDS011;60208;48.692;8.948;2022-08-07T03:33:58;2.05;;;1.00;;
72273;SDS011;60208;48.692;8.948;2022-08-07T03:36:25;0.93;;;0.80;;
72273;SDS011;60208;48.692;8.948;2022-08-07T03:38:52;2.05;;;1.00;;
72273;SDS011;60208;48.692;8.948;2022-08-07T03:41:19;1.73;;;0.93;;
72273;SDS011;60208;48.692;8.948;2022-08-07T03:43:45;1.10;;;0.80;;
72273;SDS011;60208;48.692;8.948;2022-08-07T03:46:11;1.15;;;1.05;;
72273;SDS011;60208;48.692;8.948;2022-08-07T03:48:37;1.40;;;0.95;;
72273;SDS011;60208;48.692;8.948;2022-08-07T03:51:03;1.55;;;0.90;;
72273;SDS011;60208;48.692;8.948;2022-08-07T03:53:28;1.27;;;1.02;;
72273;SDS011;60208;48.692;8.948;2022-08-07T03:55:54;2.17;;;1.17;;
72273;SDS011;60208;48.692;8.948;2022-08-07T03:58:21;1.60;;;0.90;;
72273;SDS011;60208;48.692;8.948;2022-08-07T04:00:47;2.08;;;1.10;;
72273;SDS011;60208;48.692;8.948;2022-08-07T04:03:14;2.30;;;1.00;;
72273;SDS011;60208;48.692;8.948;2022-08-07T04:05:40;1.35;;;1.00;;
72273;SDS011;60208;48.692;8.948;2022-08-07T04:08:07;1.77;;;0.95;;
72273;SDS011;60208;48.692;8.948;2022-08-07T04:10:34;1.27;;;1.00;;
72273;SDS011;60208;48.692;8.948;2022-08-07T04:13:00;1.70;;;1.00;;
72273;SDS011;60208;48.692;8.948;2022-08-07T04:15:26;1.05;;;0.95;;
72273;SDS011;60208;48.692;8.948;2022-08-07T04:17:52;3.75;;;1.13;;
72273;SDS011;60208;48.692;8.948;2022-08-07T04:20:17;1.90;;;1.10;;
72273;SDS011;60208;48.692;8.948;2022-08-07T04:22:43;2.75;;;1.10;;
72273;SDS011;60208;48.692;8.948;2022-08-07T04:25:09;1.15;;;0.90;;
72273;SDS011;60208;48.692;8.948;2022-08-07T04:27:35;1.00;;;0.90;;
72273;SDS011;60208;48.692;8.948;2022-08-07T04:30:00;2.28;;;1.00;;
72273;SDS011;60208;48.692;8.948;2022-08-07T04:32:26;1.83;;;0.75;;
72273;SDS011;60208;48.692;8.948;2022-08-07T04:34:51;1.55;;;0.90;;
72273;SDS011;60208;48.692;8.948;2022-08-07T04:37:18;1.67;;;1.08;;
72273;SDS011;60208;48.692;8.948;2022-08-07T04:39:43;2.67;;;1.30;;
72273;SDS011;60208;48.692;8.948;2022-08-07T04:42:09;2.75;;;1.00;;
72273;SDS011;60208;48.692;8.948;2022-08-07T04:44:34;0.88;;;0.88;;
72273;SDS011;60208;48.692;8.948;2022-08-07T04:55:05;4.00;;;1.02;;
72273;SDS011;60208;48.692;8.948;2022-08-07T05:00:16;1.20;;;0.93;;
72273;SDS011;60208;48.692;8.948;2022-08-07T05:05:44;1.27;;;0.90;;
72273;SDS011;60208;48.692;8.948;2022-08-07T05:11:07;1.30;;;1.00;;
72273;SDS011;60208;48.692;8.948;2022-08-07T05:13:35;3.15;;;0.80;;
72273;SDS011;60208;48.692;8.948;2022-08-07T05:16:06;2.78;;;0.90;;
72273;SDS011;60208;48.692;8.948;2022-08-07T05:18:34;3.70;;;1.00;;
72273;SDS011;60208;48.692;8.948;2022-08-07T05:21:01;1.00;;;0.80;;
72273;SDS011;60208;48.692;8.948;2022-08-07T05:25:53;1.35;;;1.00;;
72273;SDS011;60208;48.692;8.948;2022-08-07T05:28:19;2.30;;;0.90;;
72273;SDS011;60208;48.692;8.948;2022-08-07T05:30:45;2.78;;;1.00;;
72273;SDS011;60208;48.692;8.948;2022-08-07T05:33:12;2.35;;;1.17;;
72273;SDS011;60208;48.692;8.948;2022-08-07T05:35:38;1.73;;;1.00;;
72273;SDS011;60208;48.692;8.948;2022-08-07T05:38:04;1.95;;;1.00;;
72273;SDS011;60208;48.692;8.948;2022-08-07T05:40:30;2.90;;;1.15;;
72273;SDS011;60208;48.692;8.948;2022-08-07T05:42:57;1.38;;;1.20;;
72273;SDS011;60208;48.692;8.948;2022-08-07T05:45:22;2.67;;;1.10;;
72273;SDS011;60208;48.692;8.948;2022-08-07T05:47:48;1.10;;;1.00;;
72273;SDS011;60208;48.692;8.948;2022-08-07T05:50:14;1.83;;;1.08;;
72273;SDS011;60208;48.692;8.948;2022-08-07T05:52:39;1.08;;;0.98;;
72273;SDS011;60208;48.692;8.948;2022-08-07T05:55:05;1.90;;;1.40;;
72273;SDS011;60208;48.692;8.948;2022-08-07T05:57:32;1.83;;;1.00;;
72273;SDS011;60208;48.692;8.948;2022-08-07T05:59:59;2.55;;;1.40;;
72273;SDS011;60208;48.692;8.948;2022-08-07T06:02:26;3.30;;;1.83;;
72273;SDS011;60208;48.692;8.948;2022-08-07T06:04:54;4.15;;;1.50;;
72273;SDS011;60208;48.692;8.948;2022-08-07T06:07:21;2.95;;;1.50;;
72273;SDS011;60208;48.692;8.948;2022-08-07T06:09:47;1.65;;;1.33;;
72273;SDS011;60208;48.692;8.948;2022-08-07T06:12:13;3.05;;;1.45;;
72273;SDS011;60208;48.692;8.948;2022-08-07T06:14:39;2.85;;;1.80;;
72273;SDS011;60208;48.692;8.948;2022-08-07T06:17:05;3.90;;;1.63;;
72273;SDS011;60208;48.692;8.948;2022-08-07T06:19:30;2.28;;;1.80;;
72273;SDS011;60208;48.692;8.948;2022-08-07T06:21:56;6.78;;;4.07;;
72273;SDS011;60208;48.692;8.948;2022-08-07T06:24:21;2.70;;;2.08;;
72273;SDS011;60208;48.692;8.948;2022-08-07T06:26:47;4.15;;;2.83;;
72273;SDS011;60208;48.692;8.948;2022-08-07T06:29:12;2.55;;;2.35;;
72273;SDS011;60208;48.692;8.948;2022-08-07T06:31:37;2.55;;;2.28;;
72273;SDS011;60208;48.692;8.948;2022-08-07T06:34:03;3.67;;;3.25;;
72273;SDS011;60208;48.692;8.948;2022-08-07T06:36:28;4.70;;;3.58;;
72273;SDS011;60208;48.692;8.948;2022-08-07T06:38:54;6.32;;;3.50;;
72273;SDS011;60208;48.692;8.948;2022-08-07T06:46:18;4.33;;;3.43;;
72273;SDS011;60208;48.692;8.948;2022-08-07T06:48:43;5.05;;;3.50;;
72273;SDS011;60208;48.692;8.948;2022-08-07T06:51:09;4.85;;;3.60;;
72273;SDS011;60208;48.692;8.948;2022-08-07T06:53:39;4.78;;;3.47;;
72273;SDS011;60208;48.692;8.948;2022-08-07T06:56:05;3.22;;;2.92;;
72273;SDS011;60208;48.692;8.948;2022-08-07T06:58:35;4.47;;;3.30;;
72273;SDS011;60208;48.692;8.948;2022-08-07T07:01:01;6.40;;;3.63;;
72273;SDS011;60208;48.692;8.948;2022-08-07T07:03:28;4.93;;;3.20;;
72273;SDS011;60208;48.692;8.948;2022-08-07T07:05:53;4.38;;;3.00;;
72273;SDS011;60208;48.692;8.948;2022-08-07T07:08:23;4.35;;;3.30;;
72273;SDS011;60208;48.692;8.948;2022-08-07T07:10:52;3.13;;;2.83;;
72273;SDS011;60208;48.692;8.948;2022-08-07T07:13:20;2.97;;;2.67;;
72273;SDS011;60208;48.692;8.948;2022-08-07T07:15:57;3.30;;;3.00;;
72273;SDS011;60208;48.692;8.948;2022-08-07T07:18:35;3.25;;;2.60;;
72273;SDS011;60208;48.692;8.948;2022-08-07T07:21:23;4.50;;;2.50;;
72273;SDS011;60208;48.692;8.948;2022-08-07T07:23:51;2.60;;;2.10;;
72273;SDS011;60208;48.692;8.948;2022-08-07T07:26:18;2.65;;;2.30;;
72273;SDS011;60208;48.692;8.948;2022-08-07T07:28:46;5.57;;;2.45;;
72273;SDS011;60208;48.692;8.948;2022-08-07T07:33:40;3.20;;;2.22;;
72273;SDS011;60208;48.692;8.948;2022-08-07T07:36:07;2.75;;;2.15;;
72273;SDS011;60208;48.692;8.948;2022-08-07T07:38:33;2.90;;;2.03;;
72273;SDS011;60208;48.692;8.948;2022-08-07T07:41:03;2.95;;;1.70;;
72273;SDS011;60208;48.692;8.948;2022-08-07T07:43:31;1.70;;;1.60;;
72273;SDS011;60208;48.692;8.948;2022-08-07T07:45:57;2.05;;;1.88;;
72273;SDS011;60208;48.692;8.948;2022-08-07T07:48:23;2.08;;;1.33;;
72273;SDS011;60208;48.692;8.948;2022-08-07T07:50:49;2.55;;;1.70;;
72273;SDS011;60208;48.692;8.948;2022-08-07T07:53:17;2.78;;;1.73;;
72273;SDS011;60208;48.692;8.948;2022-08-07T07:55:44;3.95;;;1.60;;
72273;SDS011;60208;48.692;8.948;2022-08-07T07:58:10;1.95;;;1.30;;
72273;SDS011;60208;48.692;8.948;2022-08-07T08:00:35;1.27;;;1.17;;
72273;SDS011;60208;48.692;8.948;2022-08-07T08:03:03;2.72;;;1.20;;
72273;SDS011;60208;48.692;8.948;2022-08-07T08:05:30;2.58;;;1.20;;
72273;SDS011;60208;48.692;8.948;2022-08-07T08:07:56;5.10;;;1.20;;
72273;SDS011;60208;48.692;8.948;2022-08-07T08:10:21;1.70;;;1.30;;
72273;SDS011;60208;48.692;8.948;2022-08-07T08:12:47;2.47;;;1.15;;
72273;SDS011;60208;48.692;8.948;2022-08-07T08:15:13;1.33;;;1.00;;
72273;SDS011;60208;48.692;8.948;2022-08-07T08:17:38;2.33;;;1.00;;
72273;SDS011;60208;48.692;8.948;2022-08-07T08:20:05;6.47;;;1.10;;
72273;SDS011;60208;48.692;8.948;2022-08-07T08:22:32;1.77;;;1.00;;
72273;SDS011;60208;48.692;8.948;2022-08-07T08:25:18;1.83;;;0.95;;
72273;SDS011;60208;48.692;8.948;2022-08-07T08:28:02;1.33;;;1.02;;
72273;SDS011;60208;48.692;8.948;2022-08-07T08:30:30;1.58;;;0.90;;
72273;SDS011;60208;48.692;8.948;2022-08-07T08:32:57;3.45;;;0.90;;
72273;SDS011;60208;48.692;8.948;2022-08-07T08:35:24;3.63;;;1.45;;
72273;SDS011;60208;48.692;8.948;2022-08-07T08:37:52;0.82;;;0.82;;
72273;SDS011;60208;48.692;8.948;2022-08-07T08:40:30;0.80;;;0.75;;
72273;SDS011;60208;48.692;8.948;2022-08-07T08:45:33;1.45;;;1.00;;
72273;SDS011;60208;48.692;8.948;2022-08-07T08:48:08;2.47;;;0.95;;
72273;SDS011;60208;48.692;8.948;2022-08-07T08:50:47;0.95;;;0.82;;
72273;SDS011;60208;48.692;8.948;2022-08-07T08:53:31;2.35;;;0.75;;
72273;SDS011;60208;48.692;8.948;2022-08-07T08:56:02;1.90;;;0.90;;
72273;SDS011;60208;48.692;8.948;2022-08-07T09:04:03;1.00;;;0.90;;
72273;SDS011;60208;48.692;8.948;2022-08-07T09:06:35;1.00;;;0.82;;
72273;SDS011;60208;48.692;8.948;2022-08-07T09:09:15;1.95;;;1.00;;
72273;SDS011;60208;48.692;8.948;2022-08-07T09:11:49;3.35;;;1.10;;
72273;SDS011;60208;48.692;8.948;2022-08-07T09:14:31;1.83;;;1.00;;
72273;SDS011;60208;48.692;8.948;2022-08-07T09:17:09;2.00;;;1.50;;
72273;SDS011;60208;48.692;8.948;2022-08-07T09:19:54;1.73;;;1.23;;
72273;SDS011;60208;48.692;8.948;2022-08-07T09:35:36;1.35;;;0.98;;
72273;SDS011;60208;48.692;8.948;2022-08-07T09:40:44;2.78;;;0.88;;
72273;SDS011;60208;48.692;8.948;2022-08-07T09:46:16;2.83;;;1.10;;
72273;SDS011;60208;48.692;8.948;2022-08-07T10:00:12;1.25;;;0.90;;
72273;SDS011;60208;48.692;8.948;2022-08-07T10:02:51;1.58;;;0.70;;
72273;SDS011;60208;48.692;8.948;2022-08-07T10:27:06;2.17;;;0.60;;
72273;SDS011;60208;48.692;8.948;2022-08-07T10:29:58;1.20;;;0.52;;
72273;SDS011;60208;48.692;8.948;2022-08-07T10:35:25;0.75;;;0.70;;
72273;SDS011;60208;48.692;8.948;2022-08-07T10:40:27;0.60;;;0.60;;
72273;SDS011;60208;48.692;8.948;2022-08-07T10:42:59;0.88;;;0.55;;
72273;SDS011;60208;48.692;8.948;2022-08-07T10:45:29;1.48;;;0.50;;
72273;SDS011;60208;48.692;8.948;2022-08-07T10:48:11;1.45;;;0.80;;
72273;SDS011;60208;48.692;8.948;2022-08-07T10:53:22;1.42;;;0.40;;
72273;SDS011;60208;48.692;8.948;2022-08-07T10:56:03;0.40;;;0.40;;
72273;SDS011;60208;48.692;8.948;2022-08-07T11:03:44;0.88;;;0.50;;
72273;SDS011;60208;48.692;8.948;2022-08-07T11:06:20;2.53;;;0.60;;
72273;SDS011;60208;48.692;8.948;2022-08-07T11:08:57;2.00;;;0.50;;
72273;SDS011;60208;48.692;8.948;2022-08-07T11:11:28;1.27;;;0.50;;
72273;SDS011;60208;48.692;8.948;2022-08-07T11:14:10;0.57;;;0.45;;
72273;SDS011;60208;48.692;8.948;2022-08-07T11:16:53;0.40;;;0.40;;
72273;SDS011;60208;48.692;8.948;2022-08-07T11:19:37;0.68;;;0.40;;
72273;SDS011;60208;48.692;8.948;2022-08-07T11:22:08;0.50;;;0.50;;
72273;SDS011;60208;48.692;8.948;2022-08-07T11:27:22;0.63;;;0.40;;
72273;SDS011;60208;48.692;8.948;2022-08-07T11:29:57;1.17;;;0.38;;
72273;SDS011;60208;48.692;8.948;2022-08-07T11:35:20;1.52;;;0.60;;
72273;SDS011;60208;48.692;8.948;2022-08-07T11:43:23;1.40;;;0.40;;
72273;SDS011;60208;48.692;8.948;2022-08-07T11:51:44;0.55;;;0.50;;
72273;SDS011;60208;48.692;8.948;2022-08-07T12:09:05;0.30;;;0.30;;
72273;SDS011;60208;48.692;8.948;2022-08-07T12:14:10;0.60;;;0.43;;
72273;SDS011;60208;48.692;8.948;2022-08-07T12:16:50;0.75;;;0.40;;
72273;SDS011;60208;48.692;8.948;2022-08-07T12:19:32;0.57;;;0.55;;
72273;SDS011;60208;48.692;8.948;2022-08-07T12:22:21;0.40;;;0.40;;
72273;SDS011;60208;48.692;8.948;2022-08-07T12:25:04;1.33;;;0.40;;
72273;SDS011;60208;48.692;8.948;2022-08-07T12:28:02;0.70;;;0.50;;
72273;SDS011;60208;48.692;8.948;2022-08-07T12:30:32;1.75;;;0.43;;
72273;SDS011;60208;48.692;8.948;2022-08-07T12:35:30;2.35;;;0.50;;
72273;SDS011;60208;48.692;8.948;2022-08-07T12:37:56;0.90;;;0.40;;
72273;SDS011;60208;48.692;8.948;2022-08-07T12:40:26;0.65;;;0.40;;
72273;SDS011;60208;48.692;8.948;2022-08-07T12:42:53;1.88;;;0.60;;
72273;SDS011;60208;48.692;8.948;2022-08-07T12:45:21;0.50;;;0.50;;
72273;SDS011;60208;48.692;8.948;2022-08-07T12:47:54;0.82;;;0.40;;
72273;SDS011;60208;48.692;8.948;2022-08-07T12:58:37;1.08;;;0.40;;
72273;SDS011;60208;48.692;8.948;2022-08-07T13:03:43;1.90;;;0.70;;
72273;SDS011;60208;48.692;8.948;2022-08-07T13:09:13;0.73;;;0.60;;
72273;SDS011;60208;48.692;8.948;2022-08-07T13:11:48;0.30;;;0.30;;
72273;SDS011;60208;48.692;8.948;2022-08-07T13:14:30;0.55;;;0.40;;
72273;SDS011;60208;48.692;8.948;2022-08-07T13:17:16;0.60;;;0.40;;
72273;SDS011;60208;48.692;8.948;2022-08-07T13:22:33;0.73;;;0.25;;
72273;SDS011;60208;48.692;8.948;2022-08-07T13:28:11;1.90;;;0.50;;
72273;SDS011;60208;48.692;8.948;2022-08-07T13:30:42;1.80;;;0.40;;
72273;SDS011;60208;48.692;8.948;2022-08-07T13:33:20;0.45;;;0.45;;
72273;SDS011;60208;48.692;8.948;2022-08-07T13:35:55;1.30;;;0.43;;
72273;SDS011;60208;48.692;8.948;2022-08-07T13:43:47;1.27;;;0.32;;
72273;SDS011;60208;48.692;8.948;2022-08-07T13:46:14;0.90;;;0.40;;
72273;SDS011;60208;48.692;8.948;2022-08-07T13:48:45;0.40;;;0.40;;
72273;SDS011;60208;48.692;8.948;2022-08-07T13:51:12;1.52;;;0.45;;
72273;SDS011;60208;48.692;8.948;2022-08-07T13:53:39;0.40;;;0.40;;
72273;SDS011;60208;48.692;8.948;2022-08-07T13:56:08;1.38;;;0.50;;
72273;SDS011;60208;48.692;8.948;2022-08-07T13:58:36;0.68;;;0.50;;
72273;SDS011;60208;48.692;8.948;2022-08-07T14:01:21;0.88;;;0.50;;
72273;SDS011;60208;48.692;8.948;2022-08-07T14:03:46;0.60;;;0.50;;
72273;SDS011;60208;48.692;8.948;2022-08-07T14:06:12;0.50;;;0.47;;
72273;SDS011;60208;48.692;8.948;2022-08-07T14:08:41;0.98;;;0.55;;
72273;SDS011;60208;48.692;8.948;2022-08-07T14:11:08;0.47;;;0.47;;
72273;SDS011;60208;48.692;8.948;2022-08-07T14:13:36;2.08;;;0.35;;
72273;SDS011;60208;48.692;8.948;2022-08-07T14:16:05;1.00;;;0.60;;
72273;SDS011;60208;48.692;8.948;2022-08-07T14:18:43;0.80;;;0.38;;
72273;SDS011;60208;48.692;8.948;2022-08-07T14:21:12;1.90;;;0.50;;
72273;SDS011;60208;48.692;8.948;2022-08-07T14:23:45;0.52;;;0.50;;
72273;SDS011;60208;48.692;8.948;2022-08-07T14:26:14;0.50;;;0.40;;
72273;SDS011;60208;48.692;8.948;2022-08-07T14:28:44;0.47;;;0.40;;
72273;SDS011;60208;48.692;8.948;2022-08-07T14:31:10;0.75;;;0.50;;
72273;SDS011;60208;48.692;8.948;2022-08-07T14:33:37;0.60;;;0.50;;
72273;SDS011;60208;48.692;8.948;2022-08-07T14:36:03;0.60;;;0.50;;
72273;SDS011;60208;48.692;8.948;2022-08-07T14:38:29;0.57;;;0.50;;
72273;SDS011;60208;48.692;8.948;2022-08-07T14:41:17;0.77;;;0.60;;
72273;SDS011;60208;48.692;8.948;2022-08-07T14:43:51;0.85;;;0.60;;
72273;SDS011;60208;48.692;8.948;2022-08-07T14:46:17;1.75;;;0.50;;
72273;SDS011;60208;48.692;8.948;2022-08-07T14:48:44;0.52;;;0.50;;
72273;SDS011;60208;48.692;8.948;2022-08-07T14:51:11;1.45;;;0.50;;
72273;SDS011;60208;48.692;8.948;2022-08-07T14:53:42;7.68;;;0.70;;
72273;SDS011;60208;48.692;8.948;2022-08-07T14:56:09;1.42;;;0.60;;
72273;SDS011;60208;48.692;8.948;2022-08-07T14:58:36;1.05;;;0.50;;
72273;SDS011;60208;48.692;8.948;2022-08-07T15:01:04;2.72;;;0.50;;
72273;SDS011;60208;48.692;8.948;2022-08-07T15:03:31;0.50;;;0.40;;
72273;SDS011;60208;48.692;8.948;2022-08-07T15:05:57;0.50;;;0.50;;
72273;SDS011;60208;48.692;8.948;2022-08-07T15:08:24;1.38;;;0.65;;
72273;SDS011;60208;48.692;8.948;2022-08-07T15:11:10;1.13;;;0.63;;
72273;SDS011;60208;48.692;8.948;2022-08-07T15:13:40;2.72;;;0.60;;
72273;SDS011;60208;48.692;8.948;2022-08-07T15:16:37;1.40;;;0.60;;
72273;SDS011;60208;48.692;8.948;2022-08-07T15:19:09;0.82;;;0.50;;
72273;SDS011;60208;48.692;8.948;2022-08-07T15:21:41;0.85;;;0.60;;
72273;SDS011;60208;48.692;8.948;2022-08-07T15:24:09;0.90;;;0.60;;
72273;SDS011;60208;48.692;8.948;2022-08-07T15:26:42;0.50;;;0.50;;
72273;SDS011;60208;48.692;8.948;2022-08-07T15:29:15;1.00;;;0.70;;
72273;SDS011;60208;48.692;8.948;2022-08-07T15:31:43;0.60;;;0.60;;
72273;SDS011;60208;48.692;8.948;2022-08-07T15:34:12;0.50;;;0.50;;
72273;SDS011;60208;48.692;8.948;2022-08-07T15:36:38;3.10;;;0.50;;
72273;SDS011;60208;48.692;8.948;2022-08-07T15:39:04;0.75;;;0.52;;
72273;SDS011;60208;48.692;8.948;2022-08-07T15:41:31;1.05;;;0.70;;
72273;SDS011;60208;48.692;8.948;2022-08-07T15:44:03;1.95;;;0.50;;
72273;SDS011;60208;48.692;8.948;2022-08-07T15:46:31;0.90;;;0.47;;
72273;SDS011;60208;48.692;8.948;2022-08-07T15:48:57;1.15;;;0.50;;
72273;SDS011;60208;48.692;8.948;2022-08-07T15:51:24;0.73;;;0.60;;
72273;SDS011;60208;48.692;8.948;2022-08-07T15:53:52;1.95;;;0.60;;
72273;SDS011;60208;48.692;8.948;2022-08-07T15:56:20;0.70;;;0.60;;
72273;SDS011;60208;48.692;8.948;2022-08-07T16:01:20;0.60;;;0.60;;
72273;SDS011;60208;48.692;8.948;2022-08-07T16:03:52;0.98;;;0.70;;
72273;SDS011;60208;48.692;8.948;2022-08-07T16:06:29;0.50;;;0.50;;
72273;SDS011;60208;48.692;8.948;2022-08-07T16:08:58;0.77;;;0.77;;
72273;SDS011;60208;48.692;8.948;2022-08-07T16:14:14;0.93;;;0.73;;
72273;SDS011;60208;48.692;8.948;2022-08-07T16:19:27;1.05;;;0.70;;
72273;SDS011;60208;48.692;8.948;2022-08-07T16:24:51;2.65;;;0.60;;
72273;SDS011;60208;48.692;8.948;2022-08-07T16:27:25;0.73;;;0.60;;
72273;SDS011;60208;48.692;8.948;2022-08-07T16:32:39;3.53;;;1.00;;
72273;SDS011;60208;48.692;8.948;2022-08-07T16:35:10;1.75;;;0.50;;
72273;SDS011;60208;48.692;8.948;2022-08-07T16:51:34;1.02;;;0.68;;
72273;SDS011;60208;48.692;8.948;2022-08-07T16:56:49;0.95;;;0.60;;
72273;SDS011;60208;48.692;8.948;2022-08-07T16:59:43;1.30;;;0.70;;
72273;SDS011;60208;48.692;8.948;2022-08-07T17:05:15;0.90;;;0.90;;
72273;SDS011;60208;48.692;8.948;2022-08-07T17:07:56;1.02;;;0.80;;
72273;SDS011;60208;48.692;8.948;2022-08-07T17:16:04;0.60;;;0.60;;
72273;SDS011;60208;48.692;8.948;2022-08-07T17:21:02;0.77;;;0.77;;
72273;SDS011;60208;48.692;8.948;2022-08-07T17:26:22;0.85;;;0.82;;
72273;SDS011;60208;48.692;8.948;2022-08-07T17:34:27;1.63;;;0.82;;
72273;SDS011;60208;48.692;8.948;2022-08-07T17:36:56;2.35;;;0.70;;
72273;SDS011;60208;48.692;8.948;2022-08-07T17:42:03;1.88;;;0.90;;
72273;SDS011;60208;48.692;8.948;2022-08-07T17:44:31;1.48;;;0.70;;
72273;SDS011;60208;48.692;8.948;2022-08-07T17:47:07;1.10;;;0.90;;
72273;SDS011;60208;48.692;8.948;2022-08-07T17:49:56;0.93;;;0.80;;
72273;SDS011;60208;48.692;8.948;2022-08-07T18:00:08;0.70;;;0.70;;
72273;SDS011;60208;48.692;8.948;2022-08-07T18:02:45;1.58;;;0.88;;
72273;SDS011;60208;48.692;8.948;2022-08-07T18:08:02;3.25;;;1.13;;
72273;SDS011;60208;48.692;8.948;2022-08-07T18:16:29;2.55;;;1.30;;
72273;SDS011;60208;48.692;8.948;2022-08-07T18:19:09;1.40;;;1.08;;
72273;SDS011;60208;48.692;8.948;2022-08-07T18:21:41;3.58;;;1.63;;
72273;SDS011;60208;48.692;8.948;2022-08-07T18:26:43;1.45;;;0.85;;
72273;SDS011;60208;48.692;8.948;2022-08-07T18:29:22;1.20;;;0.90;;
72273;SDS011;60208;48.692;8.948;2022-08-07T18:39:58;0.82;;;0.82;;
72273;SDS011;60208;48.692;8.948;2022-08-07T18:56:00;2.35;;;1.20;;
72273;SDS011;60208;48.692;8.948;2022-08-07T19:01:32;0.90;;;0.85;;
72273;SDS011;60208;48.692;8.948;2022-08-07T19:06:42;2.05;;;0.73;;
72273;SDS011;60208;48.692;8.948;2022-08-07T19:09:11;1.13;;;0.90;;
72273;SDS011;60208;48.692;8.948;2022-08-07T19:17:30;0.82;;;0.80;;
72273;SDS011;60208;48.692;8.948;2022-08-07T19:20:09;4.60;;;2.75;;
72273;SDS011;60208;48.692;8.948;2022-08-07T19:25:25;2.20;;;1.70;;
72273;SDS011;60208;48.692;8.948;2022-08-07T19:27:51;1.80;;;1.52;;
72273;SDS011;60208;48.692;8.948;2022-08-07T19:30:19;0.77;;;0.70;;